Orbital elements of FENGYUN 1C DEB
| Launched | 9 May 1999 |
| Flight ended | – |
| Launch site | Taiyuan Space Center, PRC |
| Owner | People's Republic of China |
| NORAD ID | 30707 |
| Date fetched |
Epoch osculation |
Inc. [°] |
Ecc. | RA asc node [hr] |
Arg Peri. [°] |
Mean anom [°] |
Mean motion [rev/day] |
Abs. mag |
| Date fetched |
Epoch osculation |
Inc. [°] |
Ecc. | RA asc node [hr] |
Arg Peri. [°] |
Mean anom [°] |
Mean motion [rev/day] |
Abs. mag |
| 2026 May 05 17:57 | 2026 May 04 21:49:35 | 99.3976 | 0.00262 | 13.0006 | 24.8854 | 32.2279 | 14.27682 | – |
| 2026 May 04 17:57 | 2026 Apr 30 10:31:10 | 99.3982 | 0.00267 | 12.6802 | 37.9668 | 32.2279 | 14.27682 | – |
| 2026 May 03 17:57 | 2026 Apr 30 10:31:10 | 99.3982 | 0.00267 | 12.6802 | 37.9668 | 32.2279 | 14.27682 | – |
| 2026 May 02 17:57 | 2026 Apr 30 10:31:10 | 99.3982 | 0.00267 | 12.6802 | 37.9668 | 32.2279 | 14.27682 | – |
| 2026 May 01 17:56 | 2026 Apr 30 10:31:10 | 99.3982 | 0.00267 | 12.6802 | 37.9668 | 32.2279 | 14.27682 | – |
| 2026 Apr 30 17:56 | 2026 Apr 30 10:31:10 | 99.3982 | 0.00267 | 12.6802 | 37.9668 | 32.2279 | 14.27682 | – |
| 2026 Apr 29 17:57 | 2026 Apr 23 03:07:18 | 99.3978 | 0.00275 | 12.1564 | 58.9011 | 32.2279 | 14.27682 | – |
| 2026 Apr 28 17:56 | 2026 Apr 23 03:07:18 | 99.3978 | 0.00275 | 12.1564 | 58.9011 | 32.2279 | 14.27682 | – |
| 2026 Apr 27 17:58 | 2026 Apr 23 03:07:18 | 99.3978 | 0.00275 | 12.1564 | 58.9011 | 32.2279 | 14.27682 | – |
| 2026 Apr 26 17:58 | 2026 Apr 23 03:07:18 | 99.3978 | 0.00275 | 12.1564 | 58.9011 | 32.2279 | 14.27682 | – |
| 2026 Apr 25 17:58 | 2026 Apr 23 03:07:18 | 99.3978 | 0.00275 | 12.1564 | 58.9011 | 32.2279 | 14.27682 | – |
| 2026 Apr 24 17:59 | 2026 Apr 23 03:07:18 | 99.3978 | 0.00275 | 12.1564 | 58.9011 | 32.2279 | 14.27682 | – |
| 2026 Apr 23 17:57 | 2026 Apr 19 03:14:36 | 99.3984 | 0.00279 | 11.8701 | 70.0786 | 32.2279 | 14.27682 | – |
| 2026 Apr 22 17:57 | 2026 Apr 19 03:14:36 | 99.3984 | 0.00279 | 11.8701 | 70.0786 | 32.2279 | 14.27682 | – |
| 2026 Apr 21 17:57 | 2026 Apr 19 03:14:36 | 99.3984 | 0.00279 | 11.8701 | 70.0786 | 32.2279 | 14.27682 | – |
| 2026 Apr 20 17:57 | 2026 Apr 19 03:14:36 | 99.3984 | 0.00279 | 11.8701 | 70.0786 | 32.2279 | 14.27682 | – |
| 2026 Apr 19 17:58 | 2026 Apr 19 03:14:36 | 99.3984 | 0.00279 | 11.8701 | 70.0786 | 32.2279 | 14.27682 | – |
| 2026 Apr 18 17:56 | 2026 Apr 12 21:40:06 | 99.3988 | 0.00286 | 11.4235 | 87.1979 | 32.2279 | 14.27682 | – |
| 2026 Apr 16 17:57 | 2026 Apr 12 21:40:06 | 99.3988 | 0.00286 | 11.4235 | 87.1979 | 32.2279 | 14.27682 | – |
| 2026 Apr 14 17:57 | 2026 Apr 12 21:40:06 | 99.3988 | 0.00286 | 11.4235 | 87.1979 | 32.2279 | 14.27682 | – |
| 2026 Apr 13 17:57 | 2026 Apr 12 21:40:06 | 99.3988 | 0.00286 | 11.4235 | 87.1979 | 32.2279 | 14.27682 | – |
| 2026 Apr 12 17:57 | 2026 Apr 08 15:30:27 | 99.3982 | 0.00290 | 11.1185 | 98.7688 | 32.2279 | 14.27682 | – |
| 2026 Apr 11 17:57 | 2026 Apr 08 15:30:27 | 99.3982 | 0.00290 | 11.1185 | 98.7688 | 32.2279 | 14.27682 | – |
| 2026 Apr 10 17:58 | 2026 Apr 08 15:30:27 | 99.3982 | 0.00290 | 11.1185 | 98.7688 | 32.2279 | 14.27682 | – |
| 2026 Apr 09 18:01 | 2026 Apr 08 15:30:27 | 99.3982 | 0.00290 | 11.1185 | 98.7688 | 32.2279 | 14.27682 | – |
| 2026 Apr 08 17:57 | 2026 Apr 08 15:30:27 | 99.3982 | 0.00290 | 11.1185 | 98.7688 | 32.2279 | 14.27682 | – |